sensor_id;sensor_type;location;lat;lon;timestamp;P1;durP1;ratioP1;P2;durP2;ratioP2
18499;SDS011;9379;52.134;11.576;2023-02-12T00:01:19;5.10;;;4.57;;
18499;SDS011;9379;52.134;11.576;2023-02-12T00:03:49;5.03;;;4.55;;
18499;SDS011;9379;52.134;11.576;2023-02-12T00:06:16;4.75;;;4.25;;
18499;SDS011;9379;52.134;11.576;2023-02-12T00:08:42;4.25;;;3.85;;
18499;SDS011;9379;52.134;11.576;2023-02-12T00:11:10;5.30;;;4.10;;
18499;SDS011;9379;52.134;11.576;2023-02-12T00:13:38;8.65;;;4.28;;
18499;SDS011;9379;52.134;11.576;2023-02-12T00:16:06;5.35;;;3.83;;
18499;SDS011;9379;52.134;11.576;2023-02-12T00:21:10;4.68;;;4.03;;
18499;SDS011;9379;52.134;11.576;2023-02-12T00:23:38;4.72;;;4.25;;
18499;SDS011;9379;52.134;11.576;2023-02-12T00:29:22;4.13;;;3.03;;
18499;SDS011;9379;52.134;11.576;2023-02-12T00:31:49;4.18;;;3.78;;
18499;SDS011;9379;52.134;11.576;2023-02-12T00:34:16;4.47;;;4.07;;
18499;SDS011;9379;52.134;11.576;2023-02-12T00:36:44;3.78;;;3.47;;
18499;SDS011;9379;52.134;11.576;2023-02-12T00:39:11;5.30;;;4.45;;
18499;SDS011;9379;52.134;11.576;2023-02-12T00:41:37;4.60;;;4.10;;
18499;SDS011;9379;52.134;11.576;2023-02-12T00:47:26;4.03;;;3.28;;
18499;SDS011;9379;52.134;11.576;2023-02-12T00:49:53;4.05;;;3.75;;
18499;SDS011;9379;52.134;11.576;2023-02-12T00:52:22;6.03;;;4.03;;
18499;SDS011;9379;52.134;11.576;2023-02-12T00:54:49;4.57;;;4.15;;
18499;SDS011;9379;52.134;11.576;2023-02-12T00:57:16;4.25;;;3.85;;
18499;SDS011;9379;52.134;11.576;2023-02-12T00:59:43;4.88;;;4.28;;
18499;SDS011;9379;52.134;11.576;2023-02-12T01:02:10;3.72;;;3.13;;
18499;SDS011;9379;52.134;11.576;2023-02-12T01:04:37;5.13;;;4.50;;
18499;SDS011;9379;52.134;11.576;2023-02-12T01:07:04;3.90;;;3.58;;
18499;SDS011;9379;52.134;11.576;2023-02-12T01:09:32;4.05;;;3.60;;
18499;SDS011;9379;52.134;11.576;2023-02-12T01:11:59;4.72;;;4.32;;
18499;SDS011;9379;52.134;11.576;2023-02-12T01:14:26;4.32;;;3.92;;
18499;SDS011;9379;52.134;11.576;2023-02-12T01:16:53;6.90;;;4.80;;
18499;SDS011;9379;52.134;11.576;2023-02-12T01:19:20;4.60;;;4.20;;
18499;SDS011;9379;52.134;11.576;2023-02-12T01:21:47;4.40;;;4.03;;
18499;SDS011;9379;52.134;11.576;2023-02-12T01:24:14;4.40;;;4.00;;
18499;SDS011;9379;52.134;11.576;2023-02-12T01:26:43;4.57;;;4.18;;
18499;SDS011;9379;52.134;11.576;2023-02-12T01:29:10;4.35;;;3.97;;
18499;SDS011;9379;52.134;11.576;2023-02-12T01:31:37;3.53;;;3.22;;
18499;SDS011;9379;52.134;11.576;2023-02-12T01:34:06;3.55;;;3.35;;
18499;SDS011;9379;52.134;11.576;2023-02-12T01:36:34;4.10;;;3.38;;
18499;SDS011;9379;52.134;11.576;2023-02-12T01:39:01;4.53;;;4.13;;
18499;SDS011;9379;52.134;11.576;2023-02-12T01:41:32;3.72;;;3.42;;
18499;SDS011;9379;52.134;11.576;2023-02-12T01:44:10;4.13;;;3.72;;
18499;SDS011;9379;52.134;11.576;2023-02-12T01:46:39;3.88;;;3.58;;
18499;SDS011;9379;52.134;11.576;2023-02-12T01:49:07;4.30;;;3.90;;
18499;SDS011;9379;52.134;11.576;2023-02-12T01:51:39;4.63;;;4.22;;
18499;SDS011;9379;52.134;11.576;2023-02-12T01:54:07;5.22;;;4.65;;
18499;SDS011;9379;52.134;11.576;2023-02-12T01:56:37;3.90;;;3.55;;
18499;SDS011;9379;52.134;11.576;2023-02-12T01:59:05;4.38;;;3.97;;
18499;SDS011;9379;52.134;11.576;2023-02-12T02:01:34;4.55;;;4.10;;
18499;SDS011;9379;52.134;11.576;2023-02-12T02:04:02;3.45;;;3.17;;
18499;SDS011;9379;52.134;11.576;2023-02-12T02:06:33;4.25;;;3.88;;
18499;SDS011;9379;52.134;11.576;2023-02-12T02:09:03;4.20;;;3.88;;
18499;SDS011;9379;52.134;11.576;2023-02-12T02:11:31;3.78;;;3.50;;
18499;SDS011;9379;52.134;11.576;2023-02-12T02:14:15;3.38;;;3.08;;
18499;SDS011;9379;52.134;11.576;2023-02-12T02:17:05;4.20;;;3.80;;
18499;SDS011;9379;52.134;11.576;2023-02-12T02:19:51;3.60;;;3.22;;
18499;SDS011;9379;52.134;11.576;2023-02-12T02:22:35;3.85;;;3.55;;
18499;SDS011;9379;52.134;11.576;2023-02-12T02:25:14;3.67;;;3.35;;
18499;SDS011;9379;52.134;11.576;2023-02-12T02:28:12;3.67;;;3.38;;
18499;SDS011;9379;52.134;11.576;2023-02-12T02:31:02;4.03;;;3.67;;
18499;SDS011;9379;52.134;11.576;2023-02-12T02:33:36;3.38;;;3.03;;
18499;SDS011;9379;52.134;11.576;2023-02-12T02:36:09;4.07;;;3.70;;
18499;SDS011;9379;52.134;11.576;2023-02-12T02:38:43;4.25;;;3.95;;
18499;SDS011;9379;52.134;11.576;2023-02-12T02:41:17;4.20;;;3.80;;
18499;SDS011;9379;52.134;11.576;2023-02-12T02:43:52;5.45;;;4.25;;
18499;SDS011;9379;52.134;11.576;2023-02-12T02:46:22;5.20;;;4.55;;
18499;SDS011;9379;52.134;11.576;2023-02-12T02:48:56;3.42;;;3.13;;
18499;SDS011;9379;52.134;11.576;2023-02-12T02:51:28;4.43;;;4.03;;
18499;SDS011;9379;52.134;11.576;2023-02-12T02:54:00;4.50;;;3.85;;
18499;SDS011;9379;52.134;11.576;2023-02-12T02:56:31;4.10;;;3.80;;
18499;SDS011;9379;52.134;11.576;2023-02-12T02:59:02;3.72;;;3.42;;
18499;SDS011;9379;52.134;11.576;2023-02-12T03:01:37;3.65;;;3.33;;
18499;SDS011;9379;52.134;11.576;2023-02-12T03:04:07;4.18;;;3.78;;
18499;SDS011;9379;52.134;11.576;2023-02-12T03:06:39;3.60;;;3.30;;
18499;SDS011;9379;52.134;11.576;2023-02-12T03:09:12;4.18;;;3.58;;
18499;SDS011;9379;52.134;11.576;2023-02-12T03:11:42;3.17;;;2.88;;
18499;SDS011;9379;52.134;11.576;2023-02-12T03:14:11;3.72;;;3.40;;
18499;SDS011;9379;52.134;11.576;2023-02-12T03:16:45;3.30;;;3.00;;
18499;SDS011;9379;52.134;11.576;2023-02-12T03:19:19;5.50;;;4.03;;
18499;SDS011;9379;52.134;11.576;2023-02-12T03:21:51;3.67;;;3.08;;
18499;SDS011;9379;52.134;11.576;2023-02-12T03:24:23;6.47;;;3.72;;
18499;SDS011;9379;52.134;11.576;2023-02-12T03:26:55;3.13;;;2.92;;
18499;SDS011;9379;52.134;11.576;2023-02-12T03:29:28;2.88;;;2.63;;
18499;SDS011;9379;52.134;11.576;2023-02-12T03:32:04;3.83;;;3.42;;
18499;SDS011;9379;52.134;11.576;2023-02-12T03:34:49;4.45;;;3.17;;
18499;SDS011;9379;52.134;11.576;2023-02-12T03:37:26;4.10;;;3.72;;
18499;SDS011;9379;52.134;11.576;2023-02-12T03:39:56;2.75;;;2.55;;
18499;SDS011;9379;52.134;11.576;2023-02-12T03:42:31;3.92;;;3.50;;
18499;SDS011;9379;52.134;11.576;2023-02-12T03:45:07;3.67;;;3.38;;
18499;SDS011;9379;52.134;11.576;2023-02-12T03:47:42;5.47;;;3.65;;
18499;SDS011;9379;52.134;11.576;2023-02-12T03:50:14;4.97;;;3.83;;
18499;SDS011;9379;52.134;11.576;2023-02-12T03:52:45;4.45;;;3.70;;
18499;SDS011;9379;52.134;11.576;2023-02-12T03:55:15;3.58;;;3.25;;
18499;SDS011;9379;52.134;11.576;2023-02-12T03:57:43;6.88;;;4.32;;
18499;SDS011;9379;52.134;11.576;2023-02-12T04:00:15;4.43;;;4.03;;
18499;SDS011;9379;52.134;11.576;2023-02-12T04:02:45;3.95;;;3.63;;
18499;SDS011;9379;52.134;11.576;2023-02-12T04:05:17;4.22;;;3.78;;
18499;SDS011;9379;52.134;11.576;2023-02-12T04:07:45;5.75;;;4.13;;
18499;SDS011;9379;52.134;11.576;2023-02-12T04:10:13;4.78;;;4.28;;
18499;SDS011;9379;52.134;11.576;2023-02-12T04:12:42;7.68;;;5.25;;
18499;SDS011;9379;52.134;11.576;2023-02-12T04:15:25;5.18;;;4.68;;
18499;SDS011;9379;52.134;11.576;2023-02-12T04:18:05;5.70;;;3.70;;
18499;SDS011;9379;52.134;11.576;2023-02-12T04:20:43;5.10;;;3.95;;
18499;SDS011;9379;52.134;11.576;2023-02-12T04:23:21;4.05;;;3.10;;
18499;SDS011;9379;52.134;11.576;2023-02-12T04:26:06;6.43;;;3.97;;
18499;SDS011;9379;52.134;11.576;2023-02-12T04:28:42;5.55;;;4.25;;
18499;SDS011;9379;52.134;11.576;2023-02-12T04:31:19;4.85;;;4.38;;
18499;SDS011;9379;52.134;11.576;2023-02-12T04:33:57;5.45;;;4.95;;
18499;SDS011;9379;52.134;11.576;2023-02-12T04:36:33;6.70;;;5.88;;
18499;SDS011;9379;52.134;11.576;2023-02-12T04:39:05;4.35;;;3.95;;
18499;SDS011;9379;52.134;11.576;2023-02-12T04:41:39;7.80;;;5.38;;
18499;SDS011;9379;52.134;11.576;2023-02-12T04:44:13;8.55;;;4.97;;
18499;SDS011;9379;52.134;11.576;2023-02-12T04:46:41;6.55;;;4.32;;
18499;SDS011;9379;52.134;11.576;2023-02-12T04:49:11;5.75;;;4.47;;
18499;SDS011;9379;52.134;11.576;2023-02-12T04:51:41;4.25;;;3.85;;
18499;SDS011;9379;52.134;11.576;2023-02-12T04:54:09;4.95;;;4.13;;
18499;SDS011;9379;52.134;11.576;2023-02-12T04:56:36;7.32;;;4.07;;
18499;SDS011;9379;52.134;11.576;2023-02-12T04:59:03;4.50;;;4.10;;
18499;SDS011;9379;52.134;11.576;2023-02-12T05:01:32;4.80;;;4.38;;
18499;SDS011;9379;52.134;11.576;2023-02-12T05:03:59;5.30;;;4.03;;
18499;SDS011;9379;52.134;11.576;2023-02-12T05:06:28;4.65;;;3.42;;
18499;SDS011;9379;52.134;11.576;2023-02-12T05:08:59;4.32;;;3.58;;
18499;SDS011;9379;52.134;11.576;2023-02-12T05:11:26;4.18;;;3.53;;
18499;SDS011;9379;52.134;11.576;2023-02-12T05:13:53;3.38;;;2.97;;
18499;SDS011;9379;52.134;11.576;2023-02-12T05:16:20;3.22;;;2.83;;
18499;SDS011;9379;52.134;11.576;2023-02-12T05:18:47;3.72;;;3.42;;
18499;SDS011;9379;52.134;11.576;2023-02-12T05:21:14;3.97;;;3.67;;
18499;SDS011;9379;52.134;11.576;2023-02-12T05:23:43;4.13;;;3.70;;
18499;SDS011;9379;52.134;11.576;2023-02-12T05:26:11;3.20;;;2.90;;
18499;SDS011;9379;52.134;11.576;2023-02-12T05:28:39;6.93;;;5.00;;
18499;SDS011;9379;52.134;11.576;2023-02-12T05:31:07;3.67;;;3.30;;
18499;SDS011;9379;52.134;11.576;2023-02-12T05:33:36;6.22;;;4.88;;
18499;SDS011;9379;52.134;11.576;2023-02-12T05:36:03;5.90;;;4.72;;
18499;SDS011;9379;52.134;11.576;2023-02-12T05:38:31;8.10;;;4.72;;
18499;SDS011;9379;52.134;11.576;2023-02-12T05:41:03;5.15;;;4.18;;
18499;SDS011;9379;52.134;11.576;2023-02-12T05:43:32;3.75;;;3.28;;
18499;SDS011;9379;52.134;11.576;2023-02-12T05:45:59;4.53;;;3.72;;
18499;SDS011;9379;52.134;11.576;2023-02-12T05:48:27;4.45;;;4.05;;
18499;SDS011;9379;52.134;11.576;2023-02-12T05:51:00;7.55;;;4.28;;
18499;SDS011;9379;52.134;11.576;2023-02-12T05:53:27;4.88;;;4.38;;
18499;SDS011;9379;52.134;11.576;2023-02-12T05:55:54;8.85;;;5.53;;
18499;SDS011;9379;52.134;11.576;2023-02-12T05:58:32;6.68;;;5.10;;
18499;SDS011;9379;52.134;11.576;2023-02-12T06:00:59;6.68;;;4.65;;
18499;SDS011;9379;52.134;11.576;2023-02-12T06:03:26;6.50;;;4.10;;
18499;SDS011;9379;52.134;11.576;2023-02-12T06:05:53;5.60;;;4.13;;
18499;SDS011;9379;52.134;11.576;2023-02-12T06:08:20;6.68;;;4.93;;
18499;SDS011;9379;52.134;11.576;2023-02-12T06:10:47;5.32;;;4.30;;
18499;SDS011;9379;52.134;11.576;2023-02-12T06:13:14;4.30;;;3.90;;
18499;SDS011;9379;52.134;11.576;2023-02-12T06:15:42;4.32;;;3.90;;
18499;SDS011;9379;52.134;11.576;2023-02-12T06:18:09;6.38;;;5.30;;
18499;SDS011;9379;52.134;11.576;2023-02-12T06:20:37;4.78;;;3.70;;
18499;SDS011;9379;52.134;11.576;2023-02-12T06:23:04;5.03;;;4.45;;
18499;SDS011;9379;52.134;11.576;2023-02-12T06:25:31;4.30;;;3.75;;
18499;SDS011;9379;52.134;11.576;2023-02-12T06:27:58;5.50;;;3.97;;
18499;SDS011;9379;52.134;11.576;2023-02-12T06:30:25;6.22;;;4.05;;
18499;SDS011;9379;52.134;11.576;2023-02-12T06:32:54;5.47;;;4.10;;
18499;SDS011;9379;52.134;11.576;2023-02-12T06:35:21;5.45;;;4.95;;
18499;SDS011;9379;52.134;11.576;2023-02-12T06:37:48;4.10;;;3.33;;
18499;SDS011;9379;52.134;11.576;2023-02-12T06:40:15;4.38;;;3.75;;
18499;SDS011;9379;52.134;11.576;2023-02-12T06:42:42;3.72;;;3.33;;
18499;SDS011;9379;52.134;11.576;2023-02-12T06:45:09;4.70;;;3.50;;
18499;SDS011;9379;52.134;11.576;2023-02-12T06:47:36;5.82;;;4.57;;
18499;SDS011;9379;52.134;11.576;2023-02-12T06:50:05;6.05;;;4.82;;
18499;SDS011;9379;52.134;11.576;2023-02-12T06:52:32;4.80;;;4.40;;
18499;SDS011;9379;52.134;11.576;2023-02-12T06:54:59;5.75;;;4.47;;
18499;SDS011;9379;52.134;11.576;2023-02-12T06:57:26;4.68;;;4.03;;
18499;SDS011;9379;52.134;11.576;2023-02-12T06:59:54;5.57;;;4.28;;
18499;SDS011;9379;52.134;11.576;2023-02-12T07:02:20;7.78;;;4.85;;
18499;SDS011;9379;52.134;11.576;2023-02-12T07:04:47;5.93;;;4.68;;
18499;SDS011;9379;52.134;11.576;2023-02-12T07:07:15;6.72;;;4.70;;
18499;SDS011;9379;52.134;11.576;2023-02-12T07:09:42;5.05;;;4.20;;
18499;SDS011;9379;52.134;11.576;2023-02-12T07:12:09;5.88;;;4.60;;
18499;SDS011;9379;52.134;11.576;2023-02-12T07:14:36;5.68;;;4.07;;
18499;SDS011;9379;52.134;11.576;2023-02-12T07:17:05;3.13;;;2.60;;
18499;SDS011;9379;52.134;11.576;2023-02-12T07:19:33;4.05;;;3.55;;
18499;SDS011;9379;52.134;11.576;2023-02-12T07:22:00;4.28;;;3.65;;
18499;SDS011;9379;52.134;11.576;2023-02-12T07:24:29;6.15;;;4.22;;
18499;SDS011;9379;52.134;11.576;2023-02-12T07:26:55;4.65;;;4.13;;
18499;SDS011;9379;52.134;11.576;2023-02-12T07:29:22;4.55;;;3.45;;
18499;SDS011;9379;52.134;11.576;2023-02-12T07:31:49;4.32;;;3.42;;
18499;SDS011;9379;52.134;11.576;2023-02-12T07:34:16;4.53;;;4.07;;
18499;SDS011;9379;52.134;11.576;2023-02-12T07:36:42;6.00;;;4.18;;
18499;SDS011;9379;52.134;11.576;2023-02-12T07:39:10;4.30;;;3.90;;
18499;SDS011;9379;52.134;11.576;2023-02-12T07:41:39;3.85;;;3.33;;
18499;SDS011;9379;52.134;11.576;2023-02-12T07:44:06;6.85;;;4.05;;
18499;SDS011;9379;52.134;11.576;2023-02-12T07:46:36;3.75;;;3.45;;
18499;SDS011;9379;52.134;11.576;2023-02-12T07:49:05;4.25;;;2.75;;
18499;SDS011;9379;52.134;11.576;2023-02-12T07:51:35;4.78;;;4.13;;
18499;SDS011;9379;52.134;11.576;2023-02-12T07:54:03;4.18;;;3.45;;
18499;SDS011;9379;52.134;11.576;2023-02-12T07:56:30;4.68;;;3.20;;
18499;SDS011;9379;52.134;11.576;2023-02-12T07:59:02;4.72;;;2.90;;
18499;SDS011;9379;52.134;11.576;2023-02-12T08:01:31;5.68;;;3.67;;
18499;SDS011;9379;52.134;11.576;2023-02-12T08:03:59;9.20;;;3.90;;
18499;SDS011;9379;52.134;11.576;2023-02-12T08:06:27;3.47;;;3.17;;
18499;SDS011;9379;52.134;11.576;2023-02-12T08:08:56;4.15;;;3.30;;
18499;SDS011;9379;52.134;11.576;2023-02-12T08:11:24;3.53;;;3.22;;
18499;SDS011;9379;52.134;11.576;2023-02-12T08:13:52;1.90;;;1.70;;
18499;SDS011;9379;52.134;11.576;2023-02-12T08:16:21;4.95;;;2.92;;
18499;SDS011;9379;52.134;11.576;2023-02-12T08:18:50;3.17;;;2.88;;
18499;SDS011;9379;52.134;11.576;2023-02-12T08:21:18;3.45;;;3.00;;
18499;SDS011;9379;52.134;11.576;2023-02-12T08:23:46;2.95;;;2.17;;
18499;SDS011;9379;52.134;11.576;2023-02-12T08:26:15;3.53;;;2.67;;
18499;SDS011;9379;52.134;11.576;2023-02-12T08:28:44;2.67;;;2.47;;
18499;SDS011;9379;52.134;11.576;2023-02-12T08:31:13;2.97;;;2.33;;
18499;SDS011;9379;52.134;11.576;2023-02-12T08:33:44;4.55;;;3.45;;
18499;SDS011;9379;52.134;11.576;2023-02-12T08:36:11;3.13;;;2.78;;
18499;SDS011;9379;52.134;11.576;2023-02-12T08:38:39;3.00;;;2.67;;
18499;SDS011;9379;52.134;11.576;2023-02-12T08:41:08;7.55;;;2.97;;
18499;SDS011;9379;52.134;11.576;2023-02-12T08:43:36;1.88;;;1.70;;
18499;SDS011;9379;52.134;11.576;2023-02-12T08:46:04;2.85;;;2.55;;
18499;SDS011;9379;52.134;11.576;2023-02-12T08:48:32;3.45;;;2.85;;
18499;SDS011;9379;52.134;11.576;2023-02-12T08:51:04;3.78;;;2.88;;
18499;SDS011;9379;52.134;11.576;2023-02-12T08:53:32;2.47;;;1.95;;
18499;SDS011;9379;52.134;11.576;2023-02-12T08:55:59;3.55;;;2.92;;
18499;SDS011;9379;52.134;11.576;2023-02-12T08:58:26;4.18;;;3.28;;
18499;SDS011;9379;52.134;11.576;2023-02-12T09:00:52;4.93;;;3.60;;
18499;SDS011;9379;52.134;11.576;2023-02-12T09:03:19;3.60;;;2.85;;
18499;SDS011;9379;52.134;11.576;2023-02-12T09:05:46;3.35;;;2.20;;
18499;SDS011;9379;52.134;11.576;2023-02-12T09:08:14;2.55;;;1.90;;
18499;SDS011;9379;52.134;11.576;2023-02-12T09:10:41;2.65;;;2.45;;
18499;SDS011;9379;52.134;11.576;2023-02-12T09:13:09;2.72;;;2.53;;
18499;SDS011;9379;52.134;11.576;2023-02-12T09:15:39;3.35;;;2.13;;
18499;SDS011;9379;52.134;11.576;2023-02-12T09:18:07;3.17;;;2.55;;
18499;SDS011;9379;52.134;11.576;2023-02-12T09:20:35;2.13;;;2.00;;
18499;SDS011;9379;52.134;11.576;2023-02-12T09:23:04;2.38;;;2.17;;
18499;SDS011;9379;52.134;11.576;2023-02-12T09:25:32;3.45;;;2.25;;
18499;SDS011;9379;52.134;11.576;2023-02-12T09:27:59;5.32;;;3.17;;
18499;SDS011;9379;52.134;11.576;2023-02-12T09:30:26;2.45;;;1.92;;
18499;SDS011;9379;52.134;11.576;2023-02-12T09:32:53;4.03;;;2.35;;
18499;SDS011;9379;52.134;11.576;2023-02-12T09:35:20;2.80;;;2.08;;
18499;SDS011;9379;52.134;11.576;2023-02-12T09:37:48;1.85;;;1.60;;
18499;SDS011;9379;52.134;11.576;2023-02-12T09:40:17;2.85;;;2.58;;
18499;SDS011;9379;52.134;11.576;2023-02-12T09:43:01;3.35;;;2.13;;
18499;SDS011;9379;52.134;11.576;2023-02-12T09:45:35;2.97;;;2.75;;
18499;SDS011;9379;52.134;11.576;2023-02-12T09:48:10;2.95;;;2.58;;
18499;SDS011;9379;52.134;11.576;2023-02-12T09:50:50;2.83;;;2.53;;
18499;SDS011;9379;52.134;11.576;2023-02-12T09:53:20;2.40;;;2.20;;
18499;SDS011;9379;52.134;11.576;2023-02-12T09:55:53;4.82;;;2.60;;
18499;SDS011;9379;52.134;11.576;2023-02-12T09:58:22;4.57;;;2.53;;
18499;SDS011;9379;52.134;11.576;2023-02-12T10:00:56;3.40;;;3.10;;
18499;SDS011;9379;52.134;11.576;2023-02-12T10:03:23;4.20;;;2.83;;
18499;SDS011;9379;52.134;11.576;2023-02-12T10:05:55;3.55;;;3.25;;
18499;SDS011;9379;52.134;11.576;2023-02-12T10:17:38;4.15;;;2.70;;
18499;SDS011;9379;52.134;11.576;2023-02-12T10:23:24;2.72;;;2.00;;
18499;SDS011;9379;52.134;11.576;2023-02-12T10:26:01;5.20;;;3.28;;
18499;SDS011;9379;52.134;11.576;2023-02-12T10:28:37;5.22;;;3.33;;
18499;SDS011;9379;52.134;11.576;2023-02-12T10:31:06;3.38;;;2.72;;
18499;SDS011;9379;52.134;11.576;2023-02-12T10:33:41;2.55;;;2.35;;
18499;SDS011;9379;52.134;11.576;2023-02-12T10:36:12;3.35;;;2.63;;
18499;SDS011;9379;52.134;11.576;2023-02-12T10:38:44;4.28;;;3.88;;
18499;SDS011;9379;52.134;11.576;2023-02-12T10:41:15;2.50;;;2.30;;
18499;SDS011;9379;52.134;11.576;2023-02-12T10:43:42;2.97;;;2.65;;
18499;SDS011;9379;52.134;11.576;2023-02-12T10:46:11;3.20;;;2.90;;
18499;SDS011;9379;52.134;11.576;2023-02-12T10:48:43;3.25;;;2.70;;
18499;SDS011;9379;52.134;11.576;2023-02-12T10:51:18;3.58;;;3.28;;
18499;SDS011;9379;52.134;11.576;2023-02-12T10:53:55;3.47;;;3.22;;
18499;SDS011;9379;52.134;11.576;2023-02-12T10:56:21;2.13;;;1.85;;
18499;SDS011;9379;52.134;11.576;2023-02-12T10:58:51;4.07;;;1.95;;
18499;SDS011;9379;52.134;11.576;2023-02-12T11:01:21;3.38;;;2.95;;
18499;SDS011;9379;52.134;11.576;2023-02-12T11:03:52;3.25;;;3.00;;
18499;SDS011;9379;52.134;11.576;2023-02-12T11:06:20;3.20;;;2.90;;
18499;SDS011;9379;52.134;11.576;2023-02-12T11:08:50;3.28;;;2.97;;
18499;SDS011;9379;52.134;11.576;2023-02-12T11:11:18;7.03;;;4.93;;
18499;SDS011;9379;52.134;11.576;2023-02-12T11:13:52;5.63;;;4.25;;
18499;SDS011;9379;52.134;11.576;2023-02-12T11:16:29;5.50;;;3.88;;
18499;SDS011;9379;52.134;11.576;2023-02-12T11:19:01;6.30;;;4.30;;
18499;SDS011;9379;52.134;11.576;2023-02-12T11:21:30;3.95;;;3.58;;
18499;SDS011;9379;52.134;11.576;2023-02-12T11:23:57;7.07;;;4.53;;
18499;SDS011;9379;52.134;11.576;2023-02-12T11:26:47;4.35;;;3.95;;
18499;SDS011;9379;52.134;11.576;2023-02-12T11:29:18;4.57;;;4.10;;
18499;SDS011;9379;52.134;11.576;2023-02-12T11:31:58;3.83;;;3.40;;
18499;SDS011;9379;52.134;11.576;2023-02-12T11:34:27;3.28;;;2.80;;
18499;SDS011;9379;52.134;11.576;2023-02-12T11:36:55;3.47;;;2.70;;
18499;SDS011;9379;52.134;11.576;2023-02-12T11:39:23;3.63;;;3.33;;
18499;SDS011;9379;52.134;11.576;2023-02-12T11:41:53;3.53;;;3.22;;
18499;SDS011;9379;52.134;11.576;2023-02-12T11:44:22;3.85;;;3.35;;
18499;SDS011;9379;52.134;11.576;2023-02-12T11:46:53;3.90;;;2.92;;
18499;SDS011;9379;52.134;11.576;2023-02-12T11:49:24;5.90;;;3.35;;
18499;SDS011;9379;52.134;11.576;2023-02-12T11:51:55;4.43;;;3.58;;
18499;SDS011;9379;52.134;11.576;2023-02-12T11:54:26;4.40;;;3.40;;
18499;SDS011;9379;52.134;11.576;2023-02-12T11:56:56;4.07;;;3.13;;
18499;SDS011;9379;52.134;11.576;2023-02-12T11:59:26;3.85;;;3.50;;
18499;SDS011;9379;52.134;11.576;2023-02-12T12:01:59;3.95;;;3.65;;
18499;SDS011;9379;52.134;11.576;2023-02-12T12:04:33;3.63;;;3.35;;
18499;SDS011;9379;52.134;11.576;2023-02-12T12:07:02;4.65;;;4.18;;
18499;SDS011;9379;52.134;11.576;2023-02-12T12:09:38;5.00;;;4.53;;
18499;SDS011;9379;52.134;11.576;2023-02-12T12:12:10;3.75;;;3.30;;
18499;SDS011;9379;52.134;11.576;2023-02-12T12:14:43;3.90;;;2.67;;
18499;SDS011;9379;52.134;11.576;2023-02-12T12:17:34;6.65;;;5.13;;
18499;SDS011;9379;52.134;11.576;2023-02-12T12:20:28;4.63;;;4.22;;
18499;SDS011;9379;52.134;11.576;2023-02-12T12:22:59;5.45;;;4.95;;
18499;SDS011;9379;52.134;11.576;2023-02-12T12:25:30;5.35;;;4.70;;
18499;SDS011;9379;52.134;11.576;2023-02-12T12:28:05;4.97;;;4.50;;
18499;SDS011;9379;52.134;11.576;2023-02-12T12:30:49;8.30;;;4.10;;
18499;SDS011;9379;52.134;11.576;2023-02-12T12:33:24;5.03;;;4.45;;
18499;SDS011;9379;52.134;11.576;2023-02-12T12:38:58;7.05;;;6.32;;
18499;SDS011;9379;52.134;11.576;2023-02-12T12:41:35;6.78;;;5.20;;
18499;SDS011;9379;52.134;11.576;2023-02-12T12:44:18;4.72;;;4.18;;
18499;SDS011;9379;52.134;11.576;2023-02-12T12:47:00;3.75;;;3.45;;
18499;SDS011;9379;52.134;11.576;2023-02-12T12:49:47;4.93;;;4.07;;
18499;SDS011;9379;52.134;11.576;2023-02-12T12:55:31;5.10;;;4.13;;
18499;SDS011;9379;52.134;11.576;2023-02-12T12:58:09;4.00;;;3.50;;
18499;SDS011;9379;52.134;11.576;2023-02-12T13:00:48;4.68;;;3.63;;
18499;SDS011;9379;52.134;11.576;2023-02-12T13:03:34;4.03;;;3.63;;
18499;SDS011;9379;52.134;11.576;2023-02-12T13:06:23;7.47;;;3.63;;
18499;SDS011;9379;52.134;11.576;2023-02-12T13:09:03;3.80;;;3.40;;
18499;SDS011;9379;52.134;11.576;2023-02-12T13:12:10;4.00;;;3.28;;
18499;SDS011;9379;52.134;11.576;2023-02-12T13:14:59;5.30;;;3.83;;
18499;SDS011;9379;52.134;11.576;2023-02-12T13:17:34;4.63;;;4.15;;
18499;SDS011;9379;52.134;11.576;2023-02-12T13:20:11;4.32;;;3.78;;
18499;SDS011;9379;52.134;11.576;2023-02-12T13:22:49;3.50;;;3.08;;
18499;SDS011;9379;52.134;11.576;2023-02-12T13:25:25;3.50;;;3.20;;
18499;SDS011;9379;52.134;11.576;2023-02-12T13:27:56;4.68;;;3.85;;
18499;SDS011;9379;52.134;11.576;2023-02-12T13:30:26;5.13;;;3.65;;
18499;SDS011;9379;52.134;11.576;2023-02-12T13:32:59;4.20;;;3.13;;
18499;SDS011;9379;52.134;11.576;2023-02-12T13:35:31;4.57;;;3.00;;
18499;SDS011;9379;52.134;11.576;2023-02-12T13:38:00;3.83;;;3.45;;
18499;SDS011;9379;52.134;11.576;2023-02-12T13:40:30;3.22;;;2.88;;
18499;SDS011;9379;52.134;11.576;2023-02-12T13:42:59;5.00;;;3.45;;
18499;SDS011;9379;52.134;11.576;2023-02-12T13:45:39;4.32;;;3.05;;
18499;SDS011;9379;52.134;11.576;2023-02-12T13:48:19;4.97;;;3.53;;
18499;SDS011;9379;52.134;11.576;2023-02-12T13:50:58;3.88;;;3.10;;
18499;SDS011;9379;52.134;11.576;2023-02-12T13:53:30;4.20;;;3.15;;
18499;SDS011;9379;52.134;11.576;2023-02-12T13:56:10;4.13;;;3.22;;
18499;SDS011;9379;52.134;11.576;2023-02-12T13:58:53;4.38;;;3.10;;
18499;SDS011;9379;52.134;11.576;2023-02-12T14:01:34;3.92;;;3.60;;
18499;SDS011;9379;52.134;11.576;2023-02-12T14:06:58;4.55;;;2.92;;
18499;SDS011;9379;52.134;11.576;2023-02-12T14:09:32;4.60;;;3.22;;
18499;SDS011;9379;52.134;11.576;2023-02-12T14:12:04;4.25;;;2.85;;
18499;SDS011;9379;52.134;11.576;2023-02-12T14:14:34;7.60;;;4.68;;
18499;SDS011;9379;52.134;11.576;2023-02-12T14:20:07;3.83;;;3.28;;
18499;SDS011;9379;52.134;11.576;2023-02-12T14:22:56;4.78;;;3.63;;
18499;SDS011;9379;52.134;11.576;2023-02-12T14:25:58;4.22;;;3.53;;
18499;SDS011;9379;52.134;11.576;2023-02-12T14:28:48;3.08;;;2.75;;
18499;SDS011;9379;52.134;11.576;2023-02-12T14:37:11;5.90;;;4.68;;
18499;SDS011;9379;52.134;11.576;2023-02-12T14:39:41;6.28;;;3.53;;
18499;SDS011;9379;52.134;11.576;2023-02-12T14:47:56;6.82;;;4.47;;
18499;SDS011;9379;52.134;11.576;2023-02-12T14:50:30;5.90;;;4.10;;
18499;SDS011;9379;52.134;11.576;2023-02-12T14:53:04;9.38;;;6.78;;
18499;SDS011;9379;52.134;11.576;2023-02-12T14:55:46;6.40;;;5.70;;
18499;SDS011;9379;52.134;11.576;2023-02-12T14:58:16;6.25;;;4.68;;
18499;SDS011;9379;52.134;11.576;2023-02-12T15:00:46;7.13;;;4.55;;
18499;SDS011;9379;52.134;11.576;2023-02-12T15:03:17;7.50;;;4.32;;
18499;SDS011;9379;52.134;11.576;2023-02-12T15:05:51;4.90;;;4.07;;
18499;SDS011;9379;52.134;11.576;2023-02-12T15:08:25;8.48;;;7.15;;
18499;SDS011;9379;52.134;11.576;2023-02-12T15:10:58;9.73;;;7.35;;
18499;SDS011;9379;52.134;11.576;2023-02-12T15:13:35;11.20;;;8.98;;
18499;SDS011;9379;52.134;11.576;2023-02-12T15:16:14;14.38;;;8.63;;
18499;SDS011;9379;52.134;11.576;2023-02-12T15:18:49;9.48;;;8.45;;
18499;SDS011;9379;52.134;11.576;2023-02-12T15:21:21;10.55;;;7.72;;
18499;SDS011;9379;52.134;11.576;2023-02-12T15:23:58;9.80;;;5.45;;
18499;SDS011;9379;52.134;11.576;2023-02-12T15:26:27;7.15;;;5.25;;
18499;SDS011;9379;52.134;11.576;2023-02-12T15:28:57;6.40;;;5.30;;
18499;SDS011;9379;52.134;11.576;2023-02-12T15:31:26;9.70;;;4.95;;
18499;SDS011;9379;52.134;11.576;2023-02-12T15:33:55;6.97;;;5.35;;
18499;SDS011;9379;52.134;11.576;2023-02-12T15:36:24;5.80;;;5.20;;
18499;SDS011;9379;52.134;11.576;2023-02-12T15:38:54;6.07;;;5.30;;
18499;SDS011;9379;52.134;11.576;2023-02-12T15:41:24;8.68;;;5.65;;
18499;SDS011;9379;52.134;11.576;2023-02-12T15:43:54;6.38;;;5.20;;
18499;SDS011;9379;52.134;11.576;2023-02-12T15:46:21;5.57;;;5.07;;
18499;SDS011;9379;52.134;11.576;2023-02-12T15:48:50;5.72;;;4.35;;
18499;SDS011;9379;52.134;11.576;2023-02-12T15:51:22;5.28;;;4.60;;
18499;SDS011;9379;52.134;11.576;2023-02-12T15:53:54;7.45;;;6.18;;
18499;SDS011;9379;52.134;11.576;2023-02-12T15:56:22;5.25;;;4.50;;
18499;SDS011;9379;52.134;11.576;2023-02-12T15:58:51;6.25;;;4.03;;